To NAV CANADA Home Page Login to a new session Search on AWWS site Feedback and Comments Disclaimer Vers la page française équivalente Tips FAQ What's new on the site To the Forecasts and Observations / NOTAM section To "File a Flight Plan" website Publications and other links Update of the User's profile FIC Telephone Numbers My Weather Data Folder Route Weather Data Regional Weather Data Local Weather Data To the Forecasts and Observations / NOTAM section
Request Generated 03/23/2017 at 00:14:49 UTC . Weather information available at that time is displayed.

METAR/TAF

HAVRE ST-PIERRE/QC    (show WxCam)

METAR CYGV 230000Z AUTO 01010KT 9SM -SN OVC037 M08/M10 A2988 RMK
SLP124=
SPECI CYGV 222337Z AUTO 02008KT 6SM -SN OVC029 M08/M10 A2988 RMK
SLP123=
SPECI CYGV 222307Z AUTO 02008KT 3SM -SN OVC025 M07/M09 A2988 RMK
SLP121=
METAR CYGV 222300Z AUTO 02008KT 3SM -SN OVC023 M07/M09 A2988 RMK
SLP121=
SPECI CYGV 222252Z AUTO 02007KT 3SM -SN OVC021 RMK T MISG TD MISG
DENSITY ALT MISG=
SPECI CYGV 222244Z AUTO 02009KT 2SM -SN OVC019 M07/M09 A2987 RMK
SLP119=
SPECI CYGV 222205Z AUTO 03008KT 1 3/4SM -SN OVC015 M07/M08 A2985 RMK
SLP114=
SPECI CYGV 222201Z AUTO 03008KT 2SM -SN OVC015 M07/M08 A2985 RMK
SLP114=
METAR CYGV 222200Z AUTO 03009KT 1 3/4SM -SN OVC015 M07/M08 A2985 RMK
SLP114=

TAF AMD CYGV 222203Z 2222/2308 03012KT P6SM -SN OVC050 TEMPO
2222/2224 11/2SM -SN OVC015
FM230000 01015G25KT P6SM -SN OVC050 TEMPO 2300/2306 4SM -SN
FM230600 36012G22KT P6SM SCT050 BKN100
RMK FCST BASED ON AUTO OBS. NXT FCST BY 230200Z=
Your time UTC time
Weather data provided by Environment Canada and NAV CANADA